Time;durP1;ratioP1;P1;durP2;ratioP2;P2;SDS_P1;SDS_P2;PMS_P1;PMS_P2;Temp;Humidity;BMP_temperature;BMP_pressure;BME280_temperature;BME280_humidity;BME280_pressure;Samples;Min_cycle;Max_cycle;Signal;HPM_P1;HPM_P2
2022/03/21 00:01:36;;;;;;;59.22;40.33;;;5.50;99.90;;;;;;5115017;28;19914;-80
2022/03/21 00:04:20;;;;;;;64.95;38.78;;;5.60;99.90;;;;;;5115117;28;20086;-80
2022/03/21 00:07:04;;;;;;;59.35;37.33;;;5.50;99.90;;;;;;5116633;28;20411;-80
2022/03/21 00:09:49;;;;;;;58.70;38.83;;;5.60;99.90;;;;;;5115723;28;20058;-80
2022/03/21 00:12:35;;;;;;;59.20;39.15;;;5.70;99.90;;;;;;5116599;28;20057;-80
2022/03/21 00:15:20;;;;;;;59.55;38.25;;;5.70;99.90;;;;;;5115062;28;20050;-81
2022/03/21 00:18:04;;;;;;;57.58;37.08;;;5.70;99.90;;;;;;5116631;28;20494;-80
2022/03/21 00:20:50;;;;;;;60.95;35.42;;;5.70;99.90;;;;;;5115424;28;20552;-80
2022/03/21 00:23:35;;;;;;;52.60;35.47;;;5.70;99.90;;;;;;5115610;28;20506;-80
2022/03/21 00:26:19;;;;;;;51.65;35.92;;;5.80;99.90;;;;;;5115702;28;20058;-80
2022/03/21 00:29:03;;;;;;;55.13;35.33;;;5.80;99.90;;;;;;5115369;28;20490;-80
2022/03/21 00:31:47;;;;;;;;;;;5.80;99.90;;;;;;5116743;28;20085;-80
2022/03/21 00:34:32;;;;;;;53.72;33.78;;;5.80;99.90;;;;;;5114626;28;19964;-80
2022/03/21 00:37:17;;;;;;;53.40;34.25;;;5.80;99.90;;;;;;5114592;28;20046;-81
2022/03/21 00:40:02;;;;;;;52.97;34.17;;;5.80;99.90;;;;;;5115263;28;20092;-80
2022/03/21 00:42:48;;;;;;;50.58;33.55;;;6.40;99.90;;;;;;5116274;28;20080;-80
2022/03/21 00:45:32;;;;;;;50.55;34.67;;;6.80;99.90;;;;;;5115341;28;20077;-80
2022/03/21 00:48:17;;;;;;;48.22;33.10;;;5.90;99.90;;;;;;5115429;28;20043;-81
2022/03/21 00:51:01;;;;;;;50.33;32.70;;;5.90;99.90;;;;;;5100755;28;20116;-80
2022/03/21 00:53:46;;;;;;;49.22;31.83;;;5.90;99.90;;;;;;5114897;28;20039;-81
2022/03/21 00:56:30;;;;;;;48.70;31.63;;;5.90;99.90;;;;;;5114230;28;20042;-81
2022/03/21 00:59:14;;;;;;;;;;;5.90;99.90;;;;;;5114817;28;20038;-82
2022/03/21 01:01:59;;;;;;;47.78;30.20;;;5.90;99.90;;;;;;5114796;28;19958;-80
2022/03/21 01:04:43;;;;;;;49.80;30.90;;;6.70;99.90;;;;;;5100194;28;20070;-80
2022/03/21 01:07:28;;;;;;;46.78;30.52;;;5.90;99.90;;;;;;5099622;28;20121;-81
2022/03/21 01:10:16;;;;;;;40.17;27.38;;;6.00;99.90;;;;;;5115675;28;20046;-80
2022/03/21 01:13:00;;;;;;;43.50;28.15;;;5.90;99.90;;;;;;5114443;28;20038;-80
2022/03/21 01:15:44;;;;;;;43.67;27.27;;;6.00;99.90;;;;;;5115446;28;20092;-81
2022/03/21 01:18:29;;;;;;;39.67;26.35;;;5.90;99.90;;;;;;5113845;28;20096;-81
2022/03/21 01:21:13;;;;;;;39.67;24.63;;;5.90;99.90;;;;;;5114456;28;20161;-81
2022/03/21 01:23:58;;;;;;;45.30;25.92;;;6.20;99.90;;;;;;5143516;27;20065;-81
2022/03/21 01:26:42;;;;;;;37.13;23.08;;;5.90;99.90;;;;;;5114980;28;20042;-81
2022/03/21 01:29:26;;;;;;;35.35;23.23;;;5.90;99.90;;;;;;5113594;28;20493;-81
2022/03/21 01:32:10;;;;;;;37.60;22.67;;;5.90;99.90;;;;;;5114204;28;20189;-81
2022/03/21 01:34:55;;;;;;;36.13;22.25;;;6.10;99.90;;;;;;5114283;28;20051;-81
2022/03/21 01:37:40;;;;;;;30.98;19.63;;;6.00;99.90;;;;;;5099172;28;20051;-80
2022/03/21 01:40:24;;;;;;;31.48;21.15;;;6.00;99.90;;;;;;5127995;27;20168;-81
2022/03/21 01:43:10;;;;;;;36.35;20.83;;;6.00;99.90;;;;;;5103758;28;20134;-81
2022/03/21 01:45:54;;;;;;;31.55;18.77;;;6.50;99.90;;;;;;5094339;28;20055;-81
2022/03/21 01:48:38;;;;;;;28.45;17.83;;;6.00;99.90;;;;;;5078408;28;20039;-81
2022/03/21 01:51:27;;;;;;;29.08;18.23;;;5.90;99.90;;;;;;5092802;28;20549;-82
2022/03/21 01:57:17;;;;;;;30.25;17.42;;;5.80;99.90;;;;;;5094375;28;20086;-80
2022/03/21 02:00:04;;;;;;;30.35;18.42;;;6.60;99.90;;;;;;5093207;28;20085;-81
2022/03/21 02:02:49;;;;;;;30.45;17.20;;;5.70;99.90;;;;;;5078895;28;20047;-81
2022/03/21 02:05:37;;;;;;;27.50;17.50;;;5.70;99.90;;;;;;5092366;28;20119;-80
2022/03/21 02:08:21;;;;;;;30.60;17.83;;;5.70;99.90;;;;;;5093805;28;20109;-81
2022/03/21 02:11:06;;;;;;;29.20;18.60;;;5.60;99.90;;;;;;5094043;28;20124;-80
2022/03/21 02:13:52;;;;;;;30.50;17.35;;;5.60;99.90;;;;;;5092904;28;20442;-81
2022/03/21 02:16:38;;;;;;;29.50;17.05;;;5.70;99.90;;;;;;5093339;28;20055;-81
2022/03/21 02:19:30;;;;;;;31.23;18.23;;;5.40;99.90;;;;;;5093942;28;20089;-80
2022/03/21 02:22:31;;;;;;;28.83;17.33;;;5.40;99.90;;;;;;5121861;27;20474;-80
2022/03/21 02:25:33;;;;;;;28.95;18.35;;;5.30;99.90;;;;;;5093814;28;20082;-80
2022/03/21 02:28:17;;;;;;;28.20;17.00;;;5.20;99.90;;;;;;5093613;28;20499;-80
2022/03/21 02:31:02;;;;;;;33.88;17.73;;;5.30;99.90;;;;;;5078471;28;20043;-81
2022/03/21 02:33:48;;;;;;;22.88;15.73;;;5.10;99.90;;;;;;5092110;28;20034;-81
2022/03/21 02:36:33;;;;;;;28.33;17.23;;;5.10;99.90;;;;;;5092962;28;20396;-80
2022/03/21 02:39:18;;;;;;;28.48;16.73;;;5.10;99.90;;;;;;5078334;28;20124;-80
2022/03/21 02:42:04;;;;;;;27.25;15.57;;;6.10;99.90;;;;;;5092697;28;20085;-80
2022/03/21 02:44:48;;;;;;;28.35;15.52;;;5.00;99.90;;;;;;5092755;28;20752;-80
2022/03/21 02:47:32;;;;;;;;;;;5.00;99.90;;;;;;5092199;28;20062;-80
2022/03/21 02:50:21;;;;;;;30.25;14.80;;;4.90;99.90;;;;;;5093322;28;20288;-80
2022/03/21 02:53:08;;;;;;;27.35;15.82;;;4.90;99.90;;;;;;5121167;27;20397;-80
2022/03/21 02:55:57;;;;;;;25.75;15.15;;;4.90;99.90;;;;;;5092607;28;20122;-80
2022/03/21 02:58:41;;;;;;;25.45;15.15;;;4.90;99.90;;;;;;5092523;28;20084;-80
2022/03/21 03:01:26;;;;;;;26.80;15.75;;;4.80;99.90;;;;;;5092920;28;20109;-80
2022/03/21 03:04:10;;;;;;;26.45;14.75;;;4.80;99.90;;;;;;5092117;28;20046;-80
2022/03/21 03:06:54;;;;;;;;;;;5.00;99.90;;;;;;5091537;28;20079;-81
2022/03/21 03:09:38;;;;;;;24.80;13.63;;;5.30;99.90;;;;;;5092438;28;20454;-81
2022/03/21 03:12:22;;;;;;;24.23;13.77;;;4.60;99.90;;;;;;5091915;28;20035;-80
2022/03/21 03:15:08;;;;;;;26.05;14.15;;;4.50;99.90;;;;;;5091881;28;20089;-80
2022/03/21 03:17:52;;;;;;;23.08;13.77;;;4.40;99.90;;;;;;5092328;28;20120;-81
2022/03/21 03:20:37;;;;;;;24.00;13.90;;;4.40;99.90;;;;;;5091566;28;20035;-81
2022/03/21 03:23:23;;;;;;;23.50;14.23;;;4.30;99.90;;;;;;5091899;28;20043;-80
2022/03/21 03:26:07;;;;;;;23.33;13.73;;;4.20;99.90;;;;;;5092654;28;20039;-80
2022/03/21 03:28:52;;;;;;;28.90;15.13;;;4.90;99.90;;;;;;5091030;28;20390;-80
2022/03/21 03:31:36;;;;;;;23.67;14.65;;;4.60;99.90;;;;;;5091155;28;20050;-80
2022/03/21 03:34:20;;;;;;;21.40;13.23;;;4.10;99.90;;;;;;5090943;28;20127;-80
2022/03/21 03:37:04;;;;;;;24.75;12.98;;;4.60;99.90;;;;;;5091555;28;20054;-80
2022/03/21 03:39:48;;;;;;;;;;;4.00;99.90;;;;;;5091460;28;20039;-80
2022/03/21 03:42:32;;;;;;;27.40;14.00;;;3.90;99.90;;;;;;5092614;28;19919;-80
2022/03/21 03:45:17;;;;;;;24.38;15.45;;;4.00;99.90;;;;;;5092508;28;20043;-80
2022/03/21 03:48:02;;;;;;;27.13;14.52;;;3.80;99.90;;;;;;5077330;28;20533;-80
2022/03/21 03:50:47;;;;;;;27.38;15.15;;;3.70;99.90;;;;;;5091796;28;20194;-80
2022/03/21 03:53:31;;;;;;;25.58;14.25;;;3.70;99.90;;;;;;5091352;28;20039;-80
2022/03/21 03:56:15;;;;;;;;;;;3.70;99.90;;;;;;5091765;28;20170;-80
2022/03/21 03:58:59;;;;;;;25.67;14.30;;;3.60;99.90;;;;;;5091756;28;20010;-80
2022/03/21 04:01:44;;;;;;;29.00;15.40;;;3.60;99.90;;;;;;5076490;28;20043;-80
2022/03/21 04:04:28;;;;;;;;;;;3.60;99.90;;;;;;5092802;28;20043;-80
2022/03/21 04:07:12;;;;;;;25.52;15.20;;;3.60;99.90;;;;;;5092136;28;19978;-80
2022/03/21 04:09:56;;;;;;;27.48;15.60;;;3.70;99.90;;;;;;5090706;28;20177;-80
2022/03/21 04:12:43;;;;;;;25.17;14.63;;;3.60;99.90;;;;;;5105008;28;20039;-81
2022/03/21 04:15:27;;;;;;;29.92;16.05;;;3.60;99.90;;;;;;5077186;28;20449;-80
2022/03/21 04:18:11;;;;;;;;;;;3.50;99.90;;;;;;5091705;28;20092;-80
2022/03/21 04:20:55;;;;;;;33.78;17.42;;;3.50;99.90;;;;;;5119468;28;20322;-80
2022/03/21 04:23:39;;;;;;;29.23;15.50;;;3.50;99.90;;;;;;5092079;28;20082;-82
2022/03/21 04:26:24;;;;;;;29.33;16.33;;;3.50;99.90;;;;;;5105612;28;20491;-80
2022/03/21 04:29:08;;;;;;;30.20;15.57;;;3.80;99.90;;;;;;5091284;28;20085;-80
2022/03/21 04:31:52;;;;;;;;;;;3.50;99.90;;;;;;5091811;28;20039;-80
2022/03/21 04:34:36;;;;;;;27.05;14.93;;;3.50;99.90;;;;;;5092078;28;20383;-80
2022/03/21 04:37:20;;;;;;;;;;;3.50;99.90;;;;;;5092575;28;20098;-80
2022/03/21 04:40:07;;;;;;;30.95;15.38;;;4.30;99.90;;;;;;5090396;28;19915;-80
2022/03/21 04:42:51;;;;;;;26.95;15.43;;;3.40;99.90;;;;;;5091330;28;20055;-80
2022/03/21 04:45:35;;;;;;;;;;;3.40;99.90;;;;;;5091260;28;20047;-81
2022/03/21 04:48:20;;;;;;;26.45;14.88;;;3.40;99.90;;;;;;5094836;28;19965;-80
2022/03/21 04:51:04;;;;;;;31.83;16.60;;;3.50;99.90;;;;;;5094940;28;20070;-80
2022/03/21 04:53:49;;;;;;;28.00;16.50;;;3.90;99.90;;;;;;5093889;28;20043;-80
2022/03/21 04:56:33;;;;;;;29.77;16.15;;;4.10;99.90;;;;;;5095641;28;20051;-80
2022/03/21 04:59:17;;;;;;;;;;;3.30;99.90;;;;;;5095767;28;20059;-80
2022/03/21 05:02:01;;;;;;;24.90;14.60;;;3.40;99.90;;;;;;5094771;28;19999;-80
2022/03/21 05:04:45;;;;;;;;;;;3.30;99.90;;;;;;5094337;28;20097;-82
2022/03/21 05:07:30;;;;;;;35.30;17.08;;;3.30;99.90;;;;;;5094134;28;19927;-80
2022/03/21 05:10:14;;;;;;;25.27;15.07;;;3.80;99.90;;;;;;5094372;28;20039;-80
2022/03/21 05:12:59;;;;;;;26.67;15.88;;;3.40;99.90;;;;;;5093608;28;20166;-80
2022/03/21 05:15:43;;;;;;;29.23;16.60;;;3.10;99.90;;;;;;5093997;28;20165;-81
2022/03/21 05:18:27;;;;;;;26.80;15.27;;;3.10;99.90;;;;;;5079696;28;20568;-80
2022/03/21 05:21:11;;;;;;;22.98;14.45;;;3.00;99.90;;;;;;5093521;28;20093;-80
2022/03/21 05:36:08;;;;;;;32.83;17.30;;;2.90;99.90;;;;;;5093295;28;20050;-80
2022/03/21 05:38:53;;;;;;;26.23;15.35;;;3.80;99.90;;;;;;5093013;28;20051;-80
2022/03/21 05:41:37;;;;;;;26.67;16.35;;;2.90;99.90;;;;;;5079799;28;20118;-80
2022/03/21 05:44:24;;;;;;;31.10;16.38;;;2.90;99.90;;;;;;5079289;28;20120;-80
2022/03/21 05:47:08;;;;;;;32.67;18.58;;;2.90;99.90;;;;;;5093929;28;20093;-80
2022/03/21 05:49:52;;;;;;;30.75;16.90;;;2.80;99.90;;;;;;5078747;28;20404;-82
2022/03/21 05:52:37;;;;;;;31.65;17.63;;;2.90;99.90;;;;;;5093319;28;20075;-80
2022/03/21 05:55:21;;;;;;;35.50;16.40;;;2.80;99.90;;;;;;5107996;28;20086;-80
2022/03/21 05:58:05;;;;;;;;;;;2.80;99.90;;;;;;5091569;28;20039;-80
2022/03/21 06:00:49;;;;;;;30.65;16.77;;;2.80;99.90;;;;;;5094194;28;19914;-81
2022/03/21 06:03:34;;;;;;;30.88;17.67;;;3.80;99.90;;;;;;5093183;28;20071;-80
2022/03/21 06:06:19;;;;;;;34.28;16.52;;;2.80;99.90;;;;;;5106374;27;20519;-80
2022/03/21 06:09:03;;;;;;;26.80;16.10;;;2.80;99.90;;;;;;5091983;28;20091;-81
2022/03/21 06:11:50;;;;;;;32.42;17.17;;;2.80;99.90;;;;;;5099623;28;20467;-80
2022/03/21 06:14:34;;;;;;;30.02;17.15;;;2.90;99.90;;;;;;5077013;28;20034;-82
2022/03/21 06:17:19;;;;;;;32.72;17.00;;;2.90;99.90;;;;;;5096804;28;20088;-81
2022/03/21 06:20:06;;;;;;;33.90;17.33;;;2.90;99.90;;;;;;5083374;28;20042;-81
2022/03/21 06:22:51;;;;;;;34.83;19.13;;;2.90;99.90;;;;;;5114597;27;20056;-81
2022/03/21 06:25:35;;;;;;;;;;;2.90;99.90;;;;;;5112012;28;20158;-81
2022/03/21 06:28:20;;;;;;;;;;;3.00;99.90;;;;;;5110541;28;20370;-81
2022/03/21 06:31:05;;;;;;;31.63;17.23;;;3.20;99.90;;;;;;5112565;28;19974;-81
2022/03/21 06:33:49;;;;;;;31.50;16.73;;;3.00;99.90;;;;;;5112138;28;20038;-82
2022/03/21 06:36:33;;;;;;;;;;;3.00;99.90;;;;;;5112895;28;20165;-82
2022/03/21 06:39:18;;;;;;;29.45;16.63;;;3.00;99.90;;;;;;5111082;28;19988;-81
2022/03/21 06:42:02;;;;;;;30.42;17.08;;;3.10;99.90;;;;;;5097054;28;20088;-81
2022/03/21 06:44:49;;;;;;;31.15;17.17;;;3.10;99.90;;;;;;5111940;28;20050;-81
2022/03/21 06:47:33;;;;;;;32.78;17.65;;;3.20;99.90;;;;;;5083715;28;20122;-81
2022/03/21 06:50:17;;;;;;;29.08;17.95;;;3.60;99.90;;;;;;5096906;28;20042;-81
2022/03/21 06:53:02;;;;;;;38.22;20.63;;;3.30;99.90;;;;;;5108066;28;20039;-81
2022/03/21 06:55:46;;;;;;;37.22;21.83;;;3.50;99.90;;;;;;5109998;28;20399;-81
2022/03/21 06:58:31;;;;;;;39.38;20.05;;;3.60;99.90;;;;;;5101214;28;20549;-80
2022/03/21 07:01:15;;;;;;;37.67;20.38;;;3.70;99.90;;;;;;5076922;28;20090;-81
2022/03/21 07:03:59;;;;;;;43.80;21.50;;;4.20;99.90;;;;;;5092480;28;20039;-86
2022/03/21 07:06:43;;;;;;;;;;;4.00;99.90;;;;;;5097325;28;20139;-81
2022/03/21 07:09:27;;;;;;;37.58;20.33;;;4.40;99.90;;;;;;5109415;28;20317;-81
2022/03/21 07:12:11;;;;;;;33.80;19.15;;;4.30;99.90;;;;;;5095868;28;20062;-81
2022/03/21 07:14:56;;;;;;;34.65;20.38;;;4.50;99.90;;;;;;5109085;28;20560;-81
2022/03/21 07:17:42;;;;;;;30.13;18.98;;;4.60;99.90;;;;;;5097165;28;20035;-81
2022/03/21 07:20:27;;;;;;;28.40;17.25;;;5.20;99.90;;;;;;5096850;28;20087;-81
2022/03/21 07:23:11;;;;;;;29.20;18.92;;;4.90;99.90;;;;;;5093536;28;20085;-82
2022/03/21 07:25:55;;;;;;;29.55;18.60;;;5.20;99.90;;;;;;5110938;28;20074;-81
2022/03/21 07:28:40;;;;;;;32.42;18.70;;;5.50;99.90;;;;;;5117972;27;20094;-82
2022/03/21 07:31:24;;;;;;;31.80;18.50;;;5.80;99.90;;;;;;5095152;28;20042;-81
2022/03/21 07:34:09;;;;;;;25.45;17.42;;;7.10;99.90;;;;;;5110534;28;20494;-81
2022/03/21 07:36:54;;;;;;;26.35;15.90;;;8.50;99.90;;;;;;5110416;28;20040;-81
2022/03/21 07:39:39;;;;;;;24.10;15.45;;;9.60;99.90;;;;;;5110882;28;20042;-81
2022/03/21 07:42:23;;;;;;;26.15;16.33;;;10.70;99.90;;;;;;5110518;28;20208;-82
2022/03/21 07:48:12;;;;;;;;;;;12.40;99.90;;;;;;5109510;28;20427;-82
2022/03/21 07:50:57;;;;;;;20.80;15.52;;;13.40;99.90;;;;;;5109843;28;19915;-82
2022/03/21 07:53:42;;;;;;;21.92;14.85;;;14.00;99.90;;;;;;5122487;27;20085;-81
2022/03/21 07:56:26;;;;;;;;;;;14.60;99.90;;;;;;5098604;28;20034;-84
2022/03/21 07:59:10;;;;;;;21.83;14.77;;;15.20;99.90;;;;;;5110182;28;20029;-82
2022/03/21 08:01:54;;;;;;;22.75;14.75;;;15.60;99.90;;;;;;5096571;28;20034;-82
2022/03/21 08:04:39;;;;;;;;;;;16.00;99.90;;;;;;5108665;28;20039;-82
2022/03/21 08:07:23;;;;;;;20.75;14.73;;;16.30;99.70;;;;;;5111751;28;19989;-82
2022/03/21 08:10:08;;;;;;;29.13;15.23;;;16.20;98.10;;;;;;5081138;28;20066;-84
2022/03/21 08:12:55;;;;;;;24.42;15.15;;;15.60;97.10;;;;;;5082560;28;20046;-81
2022/03/21 08:15:39;;;;;;;22.30;14.65;;;14.60;98.20;;;;;;5099017;28;20080;-80
2022/03/21 08:18:25;;;;;;;24.58;16.05;;;13.80;99.70;;;;;;5111597;28;20116;-83
2022/03/21 08:21:09;;;;;;;23.92;16.10;;;13.40;99.90;;;;;;5115723;28;20434;-87
2022/03/21 08:23:54;;;;;;;25.35;15.18;;;13.20;99.90;;;;;;5097346;27;20034;-84
2022/03/21 08:26:40;;;;;;;22.00;15.38;;;13.30;99.90;;;;;;5095566;28;20400;-80
2022/03/21 08:29:23;;;;;;;24.75;15.70;;;13.70;99.90;;;;;;5141708;27;20054;-82
2022/03/21 08:32:08;;;;;;;23.50;14.52;;;14.20;99.90;;;;;;5115258;28;20545;-83
2022/03/21 08:34:53;;;;;;;24.08;16.02;;;14.80;99.10;;;;;;5129739;27;20047;-82
2022/03/21 08:37:37;;;;;;;26.42;16.60;;;15.10;96.50;;;;;;5116312;28;20521;-81
2022/03/21 08:40:21;;;;;;;24.20;16.10;;;14.90;96.70;;;;;;5093969;28;20039;-82
2022/03/21 08:43:06;;;;;;;25.92;16.15;;;14.70;96.40;;;;;;5095557;28;20047;-82
2022/03/21 08:45:51;;;;;;;22.88;15.57;;;14.10;96.90;;;;;;5095635;28;20515;-82
2022/03/21 08:51:38;;;;;;;24.48;16.05;;;13.50;98.90;;;;;;5094591;28;20047;-81
2022/03/21 08:54:22;;;;;;;24.55;15.25;;;13.20;99.10;;;;;;5104371;28;20441;-81
2022/03/21 08:57:06;;;;;;;;;;;13.10;99.70;;;;;;5103056;28;20042;-81
2022/03/21 08:59:52;;;;;;;27.23;16.98;;;13.10;97.00;;;;;;5114636;28;20555;-81
2022/03/21 09:02:37;;;;;;;24.13;16.00;;;13.20;99.90;;;;;;5114144;28;20042;-81
2022/03/21 09:05:30;;;;;;;25.90;16.75;;;13.50;99.50;;;;;;5113993;28;20050;-82
2022/03/21 09:08:17;;;;;;;28.10;17.10;;;13.80;98.40;;;;;;5096540;28;20092;-84
2022/03/21 09:11:04;;;;;;;25.50;17.02;;;13.80;98.90;;;;;;5136793;27;20556;-82
2022/03/21 09:13:49;;;;;;;23.20;17.45;;;13.60;98.90;;;;;;5122156;27;20039;-81
2022/03/21 09:16:34;;;;;;;26.40;16.42;;;13.40;99.40;;;;;;5094512;28;20051;-81
2022/03/21 09:19:19;;;;;;;27.25;16.85;;;13.30;99.90;;;;;;5094419;28;20043;-81
2022/03/21 09:22:03;;;;;;;24.50;16.95;;;13.30;99.90;;;;;;5094958;28;20035;-82
2022/03/21 09:24:47;;;;;;;22.63;15.82;;;13.30;99.90;;;;;;5122930;27;20081;-82
2022/03/21 09:27:31;;;;;;;23.65;16.75;;;13.50;99.30;;;;;;5094285;28;20039;-81
2022/03/21 09:30:16;;;;;;;23.50;16.60;;;13.70;99.20;;;;;;5107850;28;20089;-83
2022/03/21 09:33:00;;;;;;;27.33;17.73;;;14.00;98.30;;;;;;5122684;27;20384;-81
2022/03/21 09:35:44;;;;;;;23.17;17.13;;;14.20;97.50;;;;;;5094681;28;20039;-82
2022/03/21 09:38:28;;;;;;;;;;;14.30;97.30;;;;;;5094234;28;20051;-84
2022/03/21 09:41:13;;;;;;;28.10;18.77;;;14.50;95.40;;;;;;5093493;28;19919;-83
2022/03/21 09:44:00;;;;;;;27.80;17.95;;;14.50;96.10;;;;;;5079137;28;20127;-82
2022/03/21 09:46:47;;;;;;;31.70;18.70;;;14.30;95.80;;;;;;5094291;28;20051;-82
2022/03/21 09:49:31;;;;;;;26.48;17.70;;;14.20;96.00;;;;;;5107993;28;20031;-82
2022/03/21 09:52:17;;;;;;;24.50;16.88;;;14.20;96.10;;;;;;5103898;28;20111;-80
2022/03/21 09:55:02;;;;;;;23.20;16.25;;;14.10;95.80;;;;;;5140845;27;20060;-82
2022/03/21 09:57:47;;;;;;;25.55;16.17;;;14.10;95.70;;;;;;5098591;28;20043;-81
2022/03/21 10:00:32;;;;;;;25.25;16.65;;;14.10;95.80;;;;;;5107838;28;20042;-82
2022/03/21 10:03:17;;;;;;;24.17;16.40;;;14.30;95.60;;;;;;5095706;28;20058;-81
2022/03/21 10:06:01;;;;;;;28.25;16.63;;;14.30;95.70;;;;;;5102735;28;20116;-84
2022/03/21 10:08:46;;;;;;;24.60;16.15;;;14.40;95.40;;;;;;5114386;28;20055;-81
2022/03/21 10:11:30;;;;;;;26.65;15.82;;;14.40;93.10;;;;;;5093364;28;20127;-82
2022/03/21 10:14:33;;;;;;;27.00;16.88;;;14.40;94.80;;;;;;5092692;28;20495;-82
2022/03/21 10:17:22;;;;;;;25.02;16.00;;;14.50;92.90;;;;;;5092840;28;20043;-82
2022/03/21 10:20:15;;;;;;;21.13;15.68;;;14.50;94.30;;;;;;5118756;27;20078;-80
2022/03/21 10:23:15;;;;;;;23.75;15.90;;;14.80;93.90;;;;;;5099516;28;20043;-81
2022/03/21 10:26:00;;;;;;;22.95;14.73;;;14.70;92.30;;;;;;5112922;28;20062;-81
2022/03/21 10:28:44;;;;;;;24.60;15.70;;;14.80;93.30;;;;;;5113432;28;20491;-81
2022/03/21 10:31:37;;;;;;;26.30;16.27;;;14.80;92.70;;;;;;5112646;28;20184;-81
2022/03/21 10:34:23;;;;;;;22.43;15.20;;;14.90;92.20;;;;;;5112849;28;20034;-80
2022/03/21 10:37:14;;;;;;;22.80;15.48;;;15.10;92.30;;;;;;5092126;28;20066;-80
2022/03/21 10:39:59;;;;;;;22.95;16.23;;;15.20;91.80;;;;;;5106218;28;20077;-81
2022/03/21 10:43:19;;;;;;;20.88;14.95;;;15.30;90.90;;;;;;5110166;28;20049;-82
2022/03/21 10:46:08;;;;;;;21.23;14.43;;;15.40;88.90;;;;;;5016450;28;20048;-83
2022/03/21 10:49:07;;;;;;;25.00;14.65;;;16.10;90.20;;;;;;5112442;28;20078;-81
2022/03/21 10:51:56;;;;;;;25.20;16.65;;;15.50;84.90;;;;;;5113435;28;20057;-81
2022/03/21 10:54:50;;;;;;;23.65;16.13;;;15.50;87.50;;;;;;5095777;28;20034;-81
2022/03/21 10:57:37;;;;;;;22.58;15.18;;;15.70;85.80;;;;;;5111282;28;20111;-82
2022/03/21 11:00:23;;;;;;;24.00;16.10;;;15.80;85.80;;;;;;5112549;28;20436;-81
2022/03/21 11:03:09;;;;;;;23.70;14.73;;;15.80;84.70;;;;;;5083435;28;20053;-80
2022/03/21 11:05:54;;;;;;;24.73;16.52;;;15.70;83.30;;;;;;5111566;28;20035;-82
2022/03/21 11:08:39;;;;;;;22.05;14.68;;;15.70;83.50;;;;;;5095651;28;20046;-79
2022/03/21 11:11:23;;;;;;;27.85;16.48;;;15.60;83.30;;;;;;5094030;28;20061;-80
2022/03/21 11:14:08;;;;;;;19.95;15.25;;;15.70;82.70;;;;;;5092792;28;20047;-80
2022/03/21 11:16:53;;;;;;;22.27;15.57;;;15.70;83.40;;;;;;5091359;28;20110;-81
2022/03/21 11:19:38;;;;;;;21.85;15.55;;;15.90;81.40;;;;;;5092209;28;20039;-81
2022/03/21 11:22:22;;;;;;;23.40;15.68;;;15.90;81.20;;;;;;5096718;28;20088;-82
2022/03/21 11:25:09;;;;;;;20.85;15.00;;;16.00;80.70;;;;;;5109418;28;20589;-81
2022/03/21 11:28:11;;;;;;;24.30;15.73;;;16.10;79.90;;;;;;5097401;28;20043;-81
2022/03/21 11:30:55;;;;;;;20.33;15.48;;;16.10;77.70;;;;;;5088902;28;20121;-81
2022/03/21 11:33:58;;;;;;;22.42;15.25;;;16.20;76.50;;;;;;5091793;28;20554;-81
2022/03/21 11:36:56;;;;;;;21.70;14.82;;;16.10;75.70;;;;;;5091766;28;20047;-82
2022/03/21 11:39:41;;;;;;;23.58;15.45;;;16.20;75.90;;;;;;5107580;28;20139;-82
2022/03/21 11:42:26;;;;;;;22.50;15.80;;;16.30;76.00;;;;;;5103523;28;20100;-81
2022/03/21 11:45:24;;;;;;;27.17;16.02;;;16.40;74.60;;;;;;5105317;28;20058;-80
2022/03/21 11:48:17;;;;;;;25.98;16.33;;;16.50;72.60;;;;;;5091389;28;20062;-80
2022/03/21 11:51:01;;;;;;;25.42;16.63;;;16.50;73.50;;;;;;5092287;28;20453;-81
2022/03/21 11:53:50;;;;;;;22.10;15.50;;;16.60;74.20;;;;;;5091760;28;20047;-80
2022/03/21 11:56:41;;;;;;;20.45;15.32;;;16.60;73.10;;;;;;5096524;28;20559;-83
2022/03/21 11:59:34;;;;;;;24.52;15.63;;;16.70;72.20;;;;;;5115157;28;20149;-81
2022/03/21 12:02:20;;;;;;;23.05;15.02;;;16.70;71.70;;;;;;5116860;28;20069;-80
2022/03/21 12:05:09;;;;;;;22.30;14.93;;;16.80;71.40;;;;;;5111949;28;20108;-81
2022/03/21 12:07:54;;;;;;;22.65;15.15;;;16.80;71.20;;;;;;5081647;28;20135;-81
2022/03/21 12:10:38;;;;;;;21.40;15.98;;;16.90;72.00;;;;;;5104070;28;20043;-81
2022/03/21 12:13:23;;;;;;;24.40;16.85;;;17.00;72.20;;;;;;5105236;28;20065;-80
2022/03/21 12:16:17;;;;;;;27.90;15.52;;;17.20;71.70;;;;;;5109589;28;20051;-81
2022/03/21 12:19:03;;;;;;;22.90;15.45;;;17.20;70.70;;;;;;5080485;28;20046;-81
2022/03/21 12:22:26;;;;;;;21.48;14.52;;;17.20;68.80;;;;;;5094464;28;20126;-80
2022/03/21 12:25:13;;;;;;;25.70;13.90;;;17.10;66.40;;;;;;5101886;28;20069;-81
2022/03/21 12:31:31;;;;;;;22.05;16.08;;;17.00;61.70;;;;;;5115184;28;20544;-81
2022/03/21 12:34:35;;;;;;;25.33;14.50;;;16.90;66.10;;;;;;5103067;28;20442;-81
2022/03/21 12:37:41;;;;;;;24.77;15.20;;;17.00;66.20;;;;;;5109048;28;20145;-80
2022/03/21 12:40:25;;;;;;;24.60;15.68;;;17.10;65.20;;;;;;5095767;28;20035;-81
2022/03/21 12:43:09;;;;;;;21.35;14.65;;;17.10;65.40;;;;;;5094560;28;20151;-80
2022/03/21 12:46:17;;;;;;;24.10;15.27;;;17.10;65.30;;;;;;5113409;28;20547;-81
2022/03/21 12:49:01;;;;;;;24.63;15.23;;;17.10;64.00;;;;;;5106850;28;20054;-80
2022/03/21 12:51:46;;;;;;;23.38;16.20;;;17.20;65.20;;;;;;5094036;28;20412;-81
2022/03/21 12:54:30;;;;;;;22.60;14.57;;;17.10;64.30;;;;;;5094318;28;20506;-80
2022/03/21 12:57:14;;;;;;;20.50;14.80;;;17.10;63.70;;;;;;5095271;28;20434;-80
2022/03/21 13:00:16;;;;;;;25.40;15.95;;;17.00;63.10;;;;;;5079349;28;20517;-84
2022/03/21 13:03:12;;;;;;;22.95;15.32;;;17.00;61.70;;;;;;5093402;28;20101;-82
2022/03/21 13:11:54;;;;;;;24.33;15.20;;;17.00;64.60;;;;;;5114898;28;20042;-81
2022/03/21 13:14:38;;;;;;;22.15;15.38;;;17.10;64.20;;;;;;5094104;28;20458;-81
2022/03/21 13:17:22;;;;;;;23.02;15.02;;;17.00;63.80;;;;;;5079824;28;20115;-81
2022/03/21 13:20:08;;;;;;;29.58;15.07;;;17.10;63.50;;;;;;5098106;28;20114;-81
2022/03/21 13:22:54;;;;;;;28.02;15.35;;;17.20;63.50;;;;;;5113573;28;20046;-81
2022/03/21 13:25:39;;;;;;;29.98;15.65;;;17.20;62.80;;;;;;5105406;28;20043;-81
2022/03/21 13:28:29;;;;;;;20.15;14.30;;;17.10;62.30;;;;;;5094885;28;20408;-81
2022/03/21 13:31:26;;;;;;;24.08;15.00;;;17.00;62.50;;;;;;5094166;28;20084;-81
2022/03/21 13:34:12;;;;;;;25.88;14.82;;;17.00;62.70;;;;;;5115036;28;20038;-80
2022/03/21 13:36:56;;;;;;;23.20;15.63;;;17.10;63.50;;;;;;5113273;28;20093;-81
2022/03/21 13:40:00;;;;;;;22.35;15.27;;;17.10;62.20;;;;;;5112652;28;20092;-81
2022/03/21 13:42:44;;;;;;;;;;;17.20;63.10;;;;;;5095092;28;20054;-81
2022/03/21 13:45:39;;;;;;;21.13;14.85;;;17.30;63.00;;;;;;5093528;28;19927;-81
2022/03/21 13:48:38;;;;;;;23.52;15.30;;;17.40;63.90;;;;;;5094464;28;20127;-82
2022/03/21 13:51:25;;;;;;;24.70;15.05;;;17.50;63.40;;;;;;5102716;28;20115;-82
2022/03/21 13:54:13;;;;;;;22.67;14.23;;;17.60;63.10;;;;;;5112653;28;20102;-82
2022/03/21 13:57:06;;;;;;;26.25;15.10;;;17.80;63.00;;;;;;5113418;28;20058;-82
2022/03/21 14:00:10;;;;;;;22.10;15.07;;;17.90;61.80;;;;;;5113397;28;20038;-82
2022/03/21 14:02:58;;;;;;;23.48;15.68;;;17.90;60.20;;;;;;5113437;28;20490;-82
2022/03/21 14:05:43;;;;;;;20.80;15.00;;;17.80;61.00;;;;;;5113927;28;20046;-82
2022/03/21 14:08:27;;;;;;;19.05;13.95;;;17.60;60.60;;;;;;5112581;28;20553;-81
2022/03/21 14:11:17;;;;;;;26.13;14.90;;;17.50;60.40;;;;;;5111456;28;20078;-81
2022/03/21 14:14:03;;;;;;;23.02;14.90;;;17.40;59.70;;;;;;5112273;28;20510;-82
2022/03/21 14:16:47;;;;;;;26.33;14.27;;;17.30;60.40;;;;;;5112703;28;20408;-82
2022/03/21 14:19:32;;;;;;;21.40;14.60;;;17.30;61.20;;;;;;5095924;27;20483;-82
2022/03/21 14:22:17;;;;;;;24.70;15.63;;;17.30;61.30;;;;;;5103338;28;20403;-82
2022/03/21 14:25:01;;;;;;;22.88;15.73;;;17.40;60.70;;;;;;5112887;28;20118;-81
2022/03/21 14:27:45;;;;;;;22.70;14.50;;;17.30;60.10;;;;;;5109692;28;20080;-82
2022/03/21 14:30:29;;;;;;;24.20;14.82;;;17.30;59.60;;;;;;5092001;28;20039;-81
2022/03/21 14:33:13;;;;;;;28.83;15.88;;;17.20;60.70;;;;;;5091436;28;20043;-81
2022/03/21 14:35:58;;;;;;;26.02;15.95;;;17.30;60.70;;;;;;5092428;28;20047;-82
2022/03/21 14:38:42;;;;;;;20.73;14.13;;;17.40;61.10;;;;;;5105457;28;20043;-81
2022/03/21 14:41:26;;;;;;;25.55;16.05;;;17.50;61.80;;;;;;5112533;28;20070;-81
2022/03/21 14:44:12;;;;;;;25.60;15.60;;;17.60;62.10;;;;;;5111658;28;20112;-82
2022/03/21 14:46:56;;;;;;;21.30;14.15;;;17.60;62.40;;;;;;5112379;28;20494;-81
2022/03/21 14:49:42;;;;;;;19.30;13.85;;;17.50;61.30;;;;;;5112069;28;20042;-81